createdAt,value
2018-03-09T00:00:16.310Z,6.24
2018-03-09T00:01:15.944Z,6.26
2018-03-09T00:02:15.943Z,6.26
2018-03-09T00:03:15.676Z,6.24
2018-03-09T00:04:15.927Z,6.22
2018-03-09T00:05:16.216Z,6.3
2018-03-09T00:06:15.658Z,6.26
2018-03-09T00:07:15.923Z,6.27
2018-03-09T00:08:15.655Z,6.3
2018-03-09T00:09:17.138Z,6.28
2018-03-09T00:10:16.223Z,6.26
2018-03-09T00:11:15.627Z,6.3
2018-03-09T00:12:15.872Z,6.26
2018-03-09T00:13:15.866Z,6.2
2018-03-09T00:14:15.858Z,6.26
2018-03-09T00:15:16.190Z,6.19
2018-03-09T00:16:15.849Z,6.16
2018-03-09T00:17:15.828Z,6.16
2018-03-09T00:18:15.824Z,6.14
2018-03-09T00:19:15.812Z,6.12
2018-03-09T00:20:16.226Z,6.14
2018-03-09T00:21:15.609Z,6.07
2018-03-09T00:22:15.545Z,6.16
2018-03-09T00:23:15.784Z,6.07
2018-03-09T00:24:15.524Z,6.08
2018-03-09T00:25:16.226Z,6.16
2018-03-09T00:26:15.759Z,6.17
2018-03-09T00:27:15.754Z,6.12
2018-03-09T00:28:15.493Z,6.08
2018-03-09T00:29:15.754Z,6.17
2018-03-09T00:30:16.375Z,6.14
2018-03-09T00:31:15.741Z,6.14
2018-03-09T00:32:15.463Z,6.05
2018-03-09T00:33:15.457Z,6.12
2018-03-09T00:34:15.702Z,6.12
2018-03-09T00:35:15.919Z,6.07
2018-03-09T00:36:15.183Z,6.11
2018-03-09T00:37:15.680Z,6.16
2018-03-09T00:38:15.416Z,6.08
2018-03-09T00:39:15.681Z,6.12
2018-03-09T00:40:16.164Z,6.12
2018-03-09T00:41:15.652Z,6.09
2018-03-09T00:42:15.710Z,6.07
2018-03-09T00:43:15.637Z,6.16
2018-03-09T00:44:15.623Z,6.17
2018-03-09T00:45:15.958Z,6.22
2018-03-09T00:46:15.355Z,6.12
2018-03-09T00:47:15.613Z,6.12
2018-03-09T00:48:15.596Z,6.12
2018-03-09T00:49:15.582Z,6.22
2018-03-09T00:50:15.748Z,6.16
2018-03-09T00:51:15.567Z,6.2
2018-03-09T00:52:15.567Z,6.2
2018-03-09T00:53:15.337Z,6.17
2018-03-09T00:54:15.548Z,6.19
2018-03-09T00:55:17.631Z,6.16
2018-03-09T00:56:15.529Z,6.17
2018-03-09T00:57:15.527Z,6.19
2018-03-09T00:58:15.260Z,6.17
2018-03-09T00:59:15.021Z,6.14
2018-03-09T01:00:16.840Z,6.12
2018-03-09T01:01:15.507Z,6.12
2018-03-09T01:02:15.482Z,6.14
2018-03-09T01:03:15.480Z,6.2
2018-03-09T01:04:15.481Z,6.27
2018-03-09T01:05:15.706Z,6.24
2018-03-09T01:06:14.962Z,6.3
2018-03-09T01:07:15.447Z,6.27
2018-03-09T01:08:15.438Z,6.27
2018-03-09T01:09:15.440Z,6.33
2018-03-09T01:10:18.061Z,6.36
2018-03-09T01:11:15.422Z,6.39
2018-03-09T01:12:15.414Z,6.36
2018-03-09T01:13:15.411Z,6.39
2018-03-09T01:14:15.407Z,6.44
2018-03-09T01:15:15.616Z,6.42
2018-03-09T01:16:15.388Z,6.36
2018-03-09T01:17:15.389Z,6.41
2018-03-09T01:18:15.371Z,6.45
2018-03-09T01:19:15.374Z,6.33
2018-03-09T01:20:15.922Z,6.45
2018-03-09T01:21:15.350Z,6.49
2018-03-09T01:22:15.107Z,6.49
2018-03-09T01:23:15.336Z,6.44
2018-03-09T01:24:15.332Z,6.45
2018-03-09T01:25:15.539Z,6.48
2018-03-09T01:26:15.311Z,6.51
2018-03-09T01:27:15.306Z,6.52
2018-03-09T01:28:15.044Z,6.49
2018-03-09T01:29:15.302Z,6.45
2018-03-09T01:30:15.790Z,6.42
2018-03-09T01:31:15.030Z,6.44
2018-03-09T01:32:15.280Z,6.42
2018-03-09T01:33:14.754Z,6.45
2018-03-09T01:34:15.259Z,6.45
2018-03-09T01:35:15.496Z,6.45
2018-03-09T01:36:15.088Z,6.45
2018-03-09T01:37:15.241Z,6.42
2018-03-09T01:38:14.719Z,6.41
2018-03-09T01:39:15.234Z,6.42
2018-03-09T01:40:16.203Z,6.48
2018-03-09T01:41:15.222Z,6.39
2018-03-09T01:42:15.204Z,6.44
2018-03-09T01:43:14.954Z,6.39
2018-03-09T01:44:15.192Z,6.42
2018-03-09T01:45:15.653Z,6.51
2018-03-09T01:46:15.173Z,6.45
2018-03-09T01:47:15.178Z,6.48
2018-03-09T01:48:15.169Z,6.49
2018-03-09T01:49:15.157Z,6.46
2018-03-09T01:50:15.783Z,6.48
2018-03-09T01:51:14.884Z,6.49
2018-03-09T01:52:14.879Z,6.52
2018-03-09T01:53:14.883Z,6.44
2018-03-09T01:54:15.119Z,6.49
2018-03-09T01:55:15.642Z,6.49
2018-03-09T01:56:15.910Z,6.49
2018-03-09T01:57:15.101Z,6.39
2018-03-09T01:58:14.578Z,6.38
2018-03-09T01:59:15.087Z,6.45
2018-03-09T02:00:15.549Z,6.48
2018-03-09T02:01:14.812Z,6.31
2018-03-09T02:02:14.812Z,6.44
2018-03-09T02:03:14.813Z,6.38
2018-03-09T02:04:14.792Z,6.45
2018-03-09T02:05:15.540Z,6.31
2018-03-09T02:06:15.030Z,6.3
2018-03-09T02:07:14.770Z,6.27
2018-03-09T02:08:14.768Z,6.35
2018-03-09T02:09:15.005Z,6.45
2018-03-09T02:10:15.929Z,6.39
2018-03-09T02:11:15.054Z,6.39
2018-03-09T02:12:14.999Z,6.39
2018-03-09T02:13:14.979Z,6.38
2018-03-09T02:14:15.000Z,6.41
2018-03-09T02:15:15.789Z,6.42
2018-03-09T02:16:14.729Z,6.38
2018-03-09T02:17:14.951Z,6.44
2018-03-09T02:18:14.692Z,6.41
2018-03-09T02:19:14.931Z,6.39
2018-03-09T02:20:15.590Z,6.41
2018-03-09T02:21:14.928Z,6.35
2018-03-09T02:22:14.928Z,6.44
2018-03-09T02:23:14.922Z,6.44
2018-03-09T02:24:14.904Z,6.49
2018-03-09T02:25:15.830Z,6.49
2018-03-09T02:26:15.732Z,6.51
2018-03-09T02:27:14.882Z,6.41
2018-03-09T02:28:14.690Z,6.44
2018-03-09T02:29:14.860Z,6.44
2018-03-09T02:30:15.824Z,6.46
2018-03-09T02:31:14.862Z,6.45
2018-03-09T02:32:14.854Z,6.36
2018-03-09T02:33:14.585Z,6.38
2018-03-09T02:34:14.833Z,6.41
2018-03-09T02:35:16.057Z,6.41
2018-03-09T02:36:14.564Z,6.35
2018-03-09T02:37:14.806Z,6.44
2018-03-09T02:38:14.816Z,6.38
2018-03-09T02:39:14.795Z,6.44
2018-03-09T02:40:15.359Z,6.48
2018-03-09T02:41:14.782Z,6.36
2018-03-09T02:42:14.777Z,6.42
2018-03-09T02:43:14.774Z,6.39
2018-03-09T02:44:14.757Z,6.35
2018-03-09T02:45:14.872Z,6.39
2018-03-09T02:46:14.767Z,6.36
2018-03-09T02:47:14.855Z,6.38
2018-03-09T02:48:14.749Z,6.39
2018-03-09T02:49:14.483Z,6.36
2018-03-09T02:50:15.362Z,6.41
2018-03-09T02:51:14.710Z,6.28
2018-03-09T02:52:14.460Z,6.42
2018-03-09T02:53:14.440Z,6.38
2018-03-09T02:54:14.693Z,6.2
2018-03-09T02:55:15.512Z,6.28
2018-03-09T02:56:14.682Z,6.26
2018-03-09T02:57:15.927Z,6.3
2018-03-09T02:58:14.664Z,6.28
2018-03-09T02:59:14.422Z,6.24
2018-03-09T03:00:15.151Z,6.2
2018-03-09T03:01:14.401Z,6.24
2018-03-09T03:02:14.380Z,6.12
2018-03-09T03:03:14.381Z,6.33
2018-03-09T03:04:14.619Z,6.27
2018-03-09T03:05:15.531Z,6.24
2018-03-09T03:06:14.603Z,6.27
2018-03-09T03:07:14.349Z,6.28
2018-03-09T03:08:14.082Z,6.24
2018-03-09T03:09:14.347Z,6.26
2018-03-09T03:10:14.893Z,6.27
2018-03-09T03:11:14.569Z,6.3
2018-03-09T03:12:14.602Z,6.2
2018-03-09T03:13:14.296Z,6.28
2018-03-09T03:14:14.550Z,6.27
2018-03-09T03:15:15.084Z,6.26
2018-03-09T03:16:14.551Z,6.2
2018-03-09T03:17:14.528Z,6.28
2018-03-09T03:18:14.523Z,6.27
2018-03-09T03:19:14.512Z,6.22
2018-03-09T03:20:15.795Z,6.3
2018-03-09T03:21:14.497Z,6.26
2018-03-09T03:22:14.497Z,6.36
2018-03-09T03:23:14.231Z,6.31
2018-03-09T03:24:14.225Z,6.41
2018-03-09T03:25:15.741Z,6.33
2018-03-09T03:26:14.466Z,6.35
2018-03-09T03:27:15.002Z,6.42
2018-03-09T03:28:13.956Z,6.41
2018-03-09T03:29:14.436Z,6.41
2018-03-09T03:30:14.924Z,6.44
2018-03-09T03:31:14.432Z,6.44
2018-03-09T03:32:14.481Z,6.39
2018-03-09T03:33:14.480Z,6.36
2018-03-09T03:34:14.413Z,6.38
2018-03-09T03:35:14.764Z,6.31
2018-03-09T03:36:14.388Z,6.26
2018-03-09T03:37:14.392Z,6.24
2018-03-09T03:38:14.375Z,6.24
2018-03-09T03:39:14.372Z,6.2
2018-03-09T03:40:14.566Z,6.16
2018-03-09T03:41:14.354Z,6.26
2018-03-09T03:42:13.837Z,6.19
2018-03-09T03:43:14.083Z,6.17
2018-03-09T03:44:14.330Z,6.2
2018-03-09T03:45:14.773Z,6.2
2018-03-09T03:46:14.317Z,6.26
2018-03-09T03:47:14.057Z,6.2
2018-03-09T03:48:14.046Z,6.28
2018-03-09T03:49:14.311Z,6.3
2018-03-09T03:50:14.364Z,6.22
2018-03-09T03:51:14.028Z,6.26
2018-03-09T03:52:14.271Z,6.24
2018-03-09T03:53:14.265Z,6.2
2018-03-09T03:54:14.260Z,6.36
2018-03-09T03:55:14.271Z,6.31
2018-03-09T03:56:14.247Z,6.33
2018-03-09T03:57:14.256Z,6.38
2018-03-09T03:58:14.243Z,6.35
2018-03-09T03:59:14.223Z,6.45
2018-03-09T04:00:15.396Z,6.28
2018-03-09T04:01:13.959Z,6.38
2018-03-09T04:02:14.197Z,6.45
2018-03-09T04:03:14.193Z,6.36
2018-03-09T04:04:13.928Z,6.28
2018-03-09T04:05:15.015Z,6.38
2018-03-09T04:06:14.177Z,6.36
2018-03-09T04:07:14.178Z,6.33
2018-03-09T04:08:14.153Z,6.26
2018-03-09T04:09:14.148Z,6.39
2018-03-09T04:10:15.068Z,6.42
2018-03-09T04:11:14.134Z,6.41
2018-03-09T04:12:13.875Z,6.38
2018-03-09T04:13:15.182Z,6.41
2018-03-09T04:14:13.866Z,6.39
2018-03-09T04:15:14.494Z,6.42
2018-03-09T04:16:14.105Z,6.44
2018-03-09T04:17:14.107Z,6.44
2018-03-09T04:18:14.087Z,6.45
2018-03-09T04:19:14.082Z,6.38
2018-03-09T04:20:15.016Z,6.51
2018-03-09T04:21:14.065Z,6.45
2018-03-09T04:22:14.053Z,6.49
2018-03-09T04:23:14.050Z,6.45
2018-03-09T04:24:13.785Z,6.46
2018-03-09T04:25:14.892Z,6.49
2018-03-09T04:26:14.050Z,6.48
2018-03-09T04:27:14.016Z,6.48
2018-03-09T04:28:16.209Z,6.44
2018-03-09T04:29:14.011Z,6.39
2018-03-09T04:30:14.539Z,6.38
2018-03-09T04:31:13.996Z,6.44
2018-03-09T04:32:13.984Z,6.49
2018-03-09T04:33:13.980Z,6.38
2018-03-09T04:34:13.967Z,6.48
2018-03-09T04:35:14.367Z,6.46
2018-03-09T04:36:13.956Z,6.44
2018-03-09T04:37:13.995Z,6.45
2018-03-09T04:38:13.944Z,6.42
2018-03-09T04:39:13.928Z,6.39
2018-03-09T04:40:14.430Z,6.46
2018-03-09T04:41:13.930Z,6.41
2018-03-09T04:42:13.919Z,6.44
2018-03-09T04:43:15.257Z,6.38
2018-03-09T04:44:13.906Z,6.42
2018-03-09T04:45:14.445Z,6.38
2018-03-09T04:46:13.880Z,6.41
2018-03-09T04:47:13.621Z,6.39
2018-03-09T04:48:13.867Z,6.45
2018-03-09T04:49:13.869Z,6.39
2018-03-09T04:50:14.831Z,6.31
2018-03-09T04:51:13.604Z,6.41
2018-03-09T04:52:13.595Z,6.35
2018-03-09T04:53:13.598Z,6.24
2018-03-09T04:54:13.576Z,6.33
2018-03-09T04:55:14.295Z,6.26
2018-03-09T04:56:13.822Z,6.24
2018-03-09T04:57:13.567Z,6.24
2018-03-09T04:58:13.544Z,6.3
2018-03-09T04:59:13.792Z,6.26
2018-03-09T05:00:14.240Z,6.28
2018-03-09T05:01:13.791Z,6.3
2018-03-09T05:02:13.773Z,6.3
2018-03-09T05:03:13.514Z,6.22
2018-03-09T05:04:13.769Z,6.24
2018-03-09T05:05:14.503Z,6.28
2018-03-09T05:06:13.491Z,6.22
2018-03-09T05:07:13.739Z,6.27
2018-03-09T05:08:13.483Z,6.26
2018-03-09T05:09:13.465Z,6.27
2018-03-09T05:10:14.433Z,6.27
2018-03-09T05:11:13.458Z,6.22
2018-03-09T05:12:13.747Z,6.26
2018-03-09T05:13:13.690Z,6.31
2018-03-09T05:14:13.684Z,6.27
2018-03-09T05:15:14.459Z,6.42
2018-03-09T05:16:13.414Z,6.2
2018-03-09T05:17:13.660Z,6.38
2018-03-09T05:18:13.663Z,6.35
2018-03-09T05:19:13.405Z,6.2
2018-03-09T05:20:13.948Z,6.22
2018-03-09T05:21:13.641Z,6.24
2018-03-09T05:22:13.628Z,6.22
2018-03-09T05:23:13.614Z,6.36
2018-03-09T05:24:13.604Z,6.41
2018-03-09T05:25:14.588Z,6.36
2018-03-09T05:26:13.336Z,6.39
2018-03-09T05:27:13.591Z,6.33
2018-03-09T05:28:13.328Z,6.41
2018-03-09T05:29:14.419Z,6.41
2018-03-09T05:30:13.946Z,6.39
2018-03-09T05:31:13.557Z,6.38
2018-03-09T05:32:13.296Z,6.38
2018-03-09T05:33:13.307Z,6.44
2018-03-09T05:34:13.279Z,6.35
2018-03-09T05:35:13.731Z,6.39
2018-03-09T05:36:13.277Z,6.39
2018-03-09T05:37:13.260Z,6.39
2018-03-09T05:38:13.521Z,6.44
2018-03-09T05:39:13.496Z,6.41
2018-03-09T05:40:14.206Z,6.28
2018-03-09T05:41:13.228Z,6.35
2018-03-09T05:42:13.479Z,6.39
2018-03-09T05:43:13.489Z,6.45
2018-03-09T05:44:13.965Z,6.39
2018-03-09T05:45:13.752Z,6.41
2018-03-09T05:46:13.455Z,6.38
2018-03-09T05:47:12.938Z,6.36
2018-03-09T05:48:13.439Z,6.39
2018-03-09T05:49:13.512Z,6.35
2018-03-09T05:50:13.730Z,6.36
2018-03-09T05:51:13.430Z,6.33
2018-03-09T05:52:13.153Z,6.3
2018-03-09T05:53:13.143Z,6.38
2018-03-09T05:54:13.134Z,6.42
2018-03-09T05:55:13.451Z,6.36
2018-03-09T05:56:13.123Z,6.35
2018-03-09T05:57:13.374Z,6.38
2018-03-09T05:58:12.882Z,6.35
2018-03-09T05:59:17.558Z,6.38
2018-03-09T06:00:14.383Z,6.44
2018-03-09T06:01:13.086Z,6.39
2018-03-09T06:02:13.331Z,6.39
2018-03-09T06:03:13.329Z,6.45
2018-03-09T06:04:13.320Z,6.39
2018-03-09T06:05:13.563Z,6.35
2018-03-09T06:06:13.317Z,6.35
2018-03-09T06:07:13.299Z,6.36
2018-03-09T06:08:13.040Z,6.44
2018-03-09T06:09:13.040Z,6.49
2018-03-09T06:10:14.268Z,6.46
2018-03-09T06:11:13.271Z,6.35
2018-03-09T06:12:13.011Z,6.45
2018-03-09T06:13:13.264Z,6.44
2018-03-09T06:14:13.247Z,6.36
2018-03-09T06:15:14.344Z,6.48
2018-03-09T06:16:13.241Z,6.45
2018-03-09T06:17:12.983Z,6.45
2018-03-09T06:18:13.223Z,6.49
2018-03-09T06:27:35.782Z,6.46
2018-03-09T06:28:35.512Z,6.46
2018-03-09T06:29:35.264Z,6.51
2018-03-09T06:30:35.752Z,6.44
2018-03-09T06:31:35.742Z,6.46
2018-03-09T06:32:35.721Z,6.49
2018-03-09T06:33:35.479Z,6.45
2018-03-09T06:34:35.704Z,6.45
2018-03-09T06:35:35.462Z,6.51
2018-03-09T06:36:35.698Z,6.48
2018-03-09T06:37:35.676Z,6.51
2018-03-09T06:38:35.684Z,6.48
2018-03-09T06:39:35.657Z,6.49
2018-03-09T06:40:35.660Z,6.45
2018-03-09T06:41:35.647Z,6.49
2018-03-09T06:42:35.387Z,6.59
2018-03-09T06:43:35.643Z,6.54
2018-03-09T06:44:35.385Z,6.62
2018-03-09T06:45:35.622Z,6.64
2018-03-09T06:46:35.545Z,6.79
2018-03-09T06:47:37.416Z,6.84
2018-03-09T06:48:35.597Z,6.87
2018-03-09T06:49:35.322Z,6.77
2018-03-09T06:50:35.582Z,6.87
2018-03-09T06:51:35.580Z,6.85
2018-03-09T06:52:35.304Z,6.92
2018-03-09T06:53:35.569Z,7
2018-03-09T06:54:35.561Z,7.11
2018-03-09T06:55:35.557Z,7.17
2018-03-09T06:56:35.295Z,7.1
2018-03-09T06:57:35.023Z,7.2
2018-03-09T06:58:35.262Z,7.25
2018-03-09T06:59:35.041Z,7.23
2018-03-09T07:00:35.259Z,7.2
2018-03-09T07:01:35.508Z,7.28
2018-03-09T07:02:37.402Z,7.25
2018-03-09T07:03:35.505Z,7.21
2018-03-09T07:04:35.509Z,7.29
2018-03-09T07:05:35.217Z,7.25
2018-03-09T07:06:35.481Z,7.23
2018-03-09T07:07:35.207Z,7.31
2018-03-09T07:08:35.468Z,7.35
2018-03-09T07:09:35.206Z,7.38
2018-03-09T07:10:35.445Z,7.36
2018-03-09T07:11:35.453Z,7.5
2018-03-09T07:12:35.184Z,7.45
2018-03-09T07:13:35.184Z,7.51
2018-03-09T07:14:35.422Z,7.53
2018-03-09T07:15:35.411Z,7.51
2018-03-09T07:16:35.152Z,7.51
2018-03-09T07:17:37.542Z,7.56
2018-03-09T07:18:35.139Z,7.6
2018-03-09T07:19:35.125Z,7.61
2018-03-09T07:20:34.867Z,7.58
2018-03-09T07:21:35.365Z,7.7
2018-03-09T07:22:35.106Z,7.67
2018-03-09T07:23:35.111Z,7.76
2018-03-09T07:24:35.365Z,7.8
2018-03-09T07:25:35.341Z,7.8
2018-03-09T07:26:35.081Z,7.73
2018-03-09T07:27:35.075Z,7.8
2018-03-09T07:28:35.324Z,7.72
2018-03-09T07:29:35.322Z,7.7
2018-03-09T07:30:35.332Z,7.76
2018-03-09T07:31:35.139Z,7.72
2018-03-09T07:32:34.875Z,7.83
2018-03-09T07:33:35.293Z,7.8
2018-03-09T07:34:35.296Z,7.72
2018-03-09T07:35:35.287Z,7.69
2018-03-09T07:36:35.283Z,7.7
2018-03-09T07:37:35.270Z,7.73
2018-03-09T07:38:35.272Z,7.67
2018-03-09T07:39:35.266Z,7.79
2018-03-09T07:40:35.008Z,7.8
2018-03-09T07:41:35.248Z,7.82
2018-03-09T07:42:35.245Z,7.79
2018-03-09T07:43:35.330Z,7.79
2018-03-09T07:44:34.980Z,7.77
2018-03-09T07:45:34.969Z,7.77
2018-03-09T07:46:35.240Z,7.83
2018-03-09T07:47:34.957Z,7.93
2018-03-09T07:48:35.208Z,7.82
2018-03-09T07:49:35.206Z,7.91
2018-03-09T07:50:34.951Z,7.87
2018-03-09T07:51:35.185Z,7.95
2018-03-09T07:52:34.927Z,7.83
2018-03-09T07:53:34.933Z,7.91
2018-03-09T07:54:35.170Z,7.93
2018-03-09T07:55:35.188Z,8
2018-03-09T07:56:34.921Z,7.98
2018-03-09T07:57:35.179Z,7.98
2018-03-09T07:58:35.176Z,7.98
2018-03-09T07:59:34.927Z,7.98
2018-03-09T08:00:34.975Z,8
2018-03-09T08:01:35.158Z,8.01
2018-03-09T08:02:35.152Z,7.98
2018-03-09T08:03:35.185Z,7.97
2018-03-09T08:04:35.168Z,7.98
2018-03-09T08:05:34.873Z,8
2018-03-09T08:06:35.189Z,8.01
2018-03-09T08:07:34.871Z,8.06
2018-03-09T08:08:35.120Z,8
2018-03-09T08:09:34.590Z,8.03
2018-03-09T08:10:34.843Z,8.16
2018-03-09T08:11:34.838Z,8.13
2018-03-09T08:12:34.573Z,8.06
2018-03-09T08:13:35.086Z,8.15
2018-03-09T08:14:35.087Z,8.27
2018-03-09T08:15:35.072Z,8.23
2018-03-09T08:16:34.815Z,8.2
2018-03-09T08:17:34.882Z,8.19
2018-03-09T08:18:36.206Z,8.18
2018-03-09T08:19:34.793Z,8.16
2018-03-09T08:20:35.043Z,8.31
2018-03-09T08:21:35.113Z,8.38
2018-03-09T08:22:34.780Z,8.41
2018-03-09T08:23:35.066Z,8.45
2018-03-09T08:24:35.041Z,8.52
2018-03-09T08:25:35.018Z,8.69
2018-03-09T08:26:35.020Z,8.67
2018-03-09T08:27:35.012Z,8.88
2018-03-09T08:28:34.518Z,8.92
2018-03-09T08:29:34.995Z,9.06
2018-03-09T08:30:34.992Z,9.13
2018-03-09T08:31:34.734Z,9.19
2018-03-09T08:32:35.032Z,9.16
2018-03-09T08:33:35.570Z,9.32
2018-03-09T08:34:34.716Z,9.4
2018-03-09T08:35:34.716Z,9.41
2018-03-09T08:36:35.006Z,9.62
2018-03-09T08:37:34.714Z,9.55
2018-03-09T08:38:34.953Z,9.58
2018-03-09T08:39:34.950Z,9.62
2018-03-09T08:40:34.690Z,9.76
2018-03-09T08:41:34.945Z,9.82
2018-03-09T08:42:34.427Z,9.83
2018-03-09T08:43:34.687Z,9.91
2018-03-09T08:44:34.930Z,9.89
2018-03-09T08:45:34.684Z,9.91
2018-03-09T08:46:35.024Z,9.87
2018-03-09T08:47:34.925Z,9.87
2018-03-09T08:48:34.924Z,9.8
2018-03-09T08:49:34.922Z,9.92
2018-03-09T08:50:34.653Z,9.87
2018-03-09T08:51:34.906Z,9.94
2018-03-09T08:52:34.898Z,9.89
2018-03-09T08:53:34.634Z,9.91
2018-03-09T08:54:34.899Z,9.84
2018-03-09T08:55:34.378Z,9.86
2018-03-09T08:56:34.881Z,9.89
2018-03-09T08:57:34.620Z,10.01
2018-03-09T08:58:34.701Z,10.07
2018-03-09T08:59:34.674Z,10.16
2018-03-09T09:00:34.871Z,10.09
2018-03-09T09:01:34.870Z,10.19
2018-03-09T09:02:34.864Z,10.26
2018-03-09T09:03:34.855Z,10.3
2018-03-09T09:04:34.862Z,10.33
2018-03-09T09:05:34.848Z,10.35
2018-03-09T09:06:34.594Z,10.4
2018-03-09T09:07:34.847Z,10.37
2018-03-09T09:08:35.028Z,10.38
2018-03-09T09:09:34.832Z,10.42
2018-03-09T09:10:34.829Z,10.35
2018-03-09T09:11:34.909Z,10.38
2018-03-09T09:12:34.567Z,10.59
2018-03-09T09:13:35.035Z,10.54
2018-03-09T09:14:34.825Z,10.59
2018-03-09T09:15:34.565Z,10.74
2018-03-09T09:16:34.812Z,10.72
2018-03-09T09:17:34.809Z,10.86
2018-03-09T09:18:34.807Z,10.82
2018-03-09T09:19:35.310Z,10.99
2018-03-09T09:20:34.799Z,11.04
2018-03-09T09:21:34.795Z,11.12
2018-03-09T09:22:34.790Z,11.25
2018-03-09T09:23:34.966Z,11.35
2018-03-09T09:24:34.787Z,11.33
2018-03-09T09:25:34.527Z,11.36
2018-03-09T09:26:34.786Z,11.54
2018-03-09T09:27:34.327Z,11.54
2018-03-09T09:28:34.774Z,11.68
2018-03-09T09:29:35.590Z,11.72
2018-03-09T09:30:34.780Z,11.81
2018-03-09T09:31:34.510Z,11.83
2018-03-09T09:32:34.511Z,11.91
2018-03-09T09:33:34.772Z,11.91
2018-03-09T09:34:35.290Z,11.87
2018-03-09T09:35:34.505Z,11.77
2018-03-09T09:36:34.510Z,11.73
2018-03-09T09:37:34.505Z,11.69
2018-03-09T09:38:34.774Z,11.86
2018-03-09T09:39:34.753Z,11.91
2018-03-09T09:40:34.755Z,11.94
2018-03-09T09:41:34.751Z,11.95
2018-03-09T09:42:34.744Z,12.07
2018-03-09T09:43:34.823Z,12.09
2018-03-09T09:44:34.482Z,12.21
2018-03-09T09:45:34.742Z,12.18
2018-03-09T09:46:34.743Z,12.2
2018-03-09T09:47:34.738Z,12.21
2018-03-09T09:48:34.741Z,12.21
2018-03-09T09:49:34.739Z,12.22
2018-03-09T09:50:34.742Z,12.27
2018-03-09T09:51:34.473Z,12.31
2018-03-09T09:52:34.732Z,12.29
2018-03-09T09:53:34.738Z,12.43
2018-03-09T09:54:34.724Z,12.47
2018-03-09T09:55:34.729Z,12.61
2018-03-09T09:56:34.464Z,12.61
2018-03-09T09:57:34.740Z,12.7
2018-03-09T09:58:34.725Z,12.83
2018-03-09T09:59:34.770Z,12.9
2018-03-09T10:00:34.738Z,12.97
2018-03-09T10:01:34.711Z,13.08
2018-03-09T10:02:34.709Z,13
2018-03-09T10:03:34.469Z,13.13
2018-03-09T10:04:34.732Z,13.22
2018-03-09T10:05:34.462Z,13.33
2018-03-09T10:06:34.464Z,13.41
2018-03-09T10:07:34.474Z,13.42
2018-03-09T10:08:34.193Z,13.35
2018-03-09T10:09:34.701Z,13.27
2018-03-09T10:10:34.440Z,13.19
2018-03-09T10:11:34.705Z,13.18
2018-03-09T10:12:34.439Z,13.23
2018-03-09T10:13:34.443Z,13.15
2018-03-09T10:14:34.698Z,13.18
2018-03-09T10:15:34.436Z,13.16
2018-03-09T10:16:34.696Z,13.15
2018-03-09T10:17:34.693Z,13.2
2018-03-09T10:18:34.764Z,13.23
2018-03-09T10:19:34.691Z,13.13
2018-03-09T10:20:34.430Z,13.15
2018-03-09T10:21:34.696Z,13.05
2018-03-09T10:22:34.179Z,13.18
2018-03-09T10:23:34.476Z,13.2
2018-03-09T10:24:34.696Z,13.19
2018-03-09T10:25:34.694Z,13.22
2018-03-09T10:26:34.761Z,13.13
2018-03-09T10:27:34.685Z,13.27
2018-03-09T10:28:34.687Z,13.38
2018-03-09T10:58:31.377Z,13.97
2018-03-09T10:59:31.378Z,13.97
2018-03-09T11:00:31.421Z,13.95
2018-03-09T11:01:31.128Z,14
2018-03-09T11:02:31.350Z,14.1
2018-03-09T11:03:31.088Z,14.17
2018-03-09T11:04:31.094Z,14.25
2018-03-09T11:05:31.340Z,14.4
2018-03-09T11:06:30.820Z,14.48
2018-03-09T11:07:31.340Z,14.41
2018-03-09T11:08:31.339Z,14.45
2018-03-09T11:09:31.071Z,14.54
2018-03-09T11:10:31.075Z,14.65
2018-03-09T11:11:31.064Z,14.66
2018-03-09T11:12:31.063Z,14.62
2018-03-09T11:13:32.331Z,14.66
2018-03-09T11:14:31.097Z,14.84
2018-03-09T11:15:31.333Z,14.86
2018-03-09T11:16:31.060Z,14.88
2018-03-09T11:17:31.319Z,14.88
2018-03-09T11:18:31.319Z,14.88
2018-03-09T11:19:31.119Z,14.86
2018-03-09T11:20:31.318Z,14.92
2018-03-09T11:21:31.315Z,14.96
2018-03-09T11:22:31.054Z,15.11
2018-03-09T11:23:31.309Z,15.37
2018-03-09T11:24:31.314Z,15.46
2018-03-09T11:25:31.315Z,15.42
2018-03-09T11:26:31.058Z,15.54
2018-03-09T11:27:31.321Z,15.54
2018-03-09T11:28:32.117Z,15.64
2018-03-09T11:29:30.812Z,15.65
2018-03-09T11:30:31.053Z,15.75
2018-03-09T11:31:31.324Z,15.77
2018-03-09T11:32:31.382Z,15.68
2018-03-09T11:33:31.056Z,15.61
2018-03-09T11:34:31.320Z,15.57
2018-03-09T11:35:31.305Z,15.42
2018-03-09T11:36:31.320Z,15.36
2018-03-09T11:37:31.319Z,15.25
2018-03-09T11:38:31.318Z,15.15
2018-03-09T11:39:31.320Z,15
2018-03-09T11:40:31.321Z,14.97
2018-03-09T11:41:31.071Z,14.91
2018-03-09T11:42:31.066Z,14.91
2018-03-09T11:43:31.319Z,14.91
2018-03-09T11:44:31.324Z,14.84
2018-03-09T11:45:30.811Z,14.77
2018-03-09T11:46:31.324Z,14.69
2018-03-09T11:47:31.321Z,14.69
2018-03-09T11:48:31.324Z,14.63
2018-03-09T11:49:31.328Z,14.54
2018-03-09T11:50:31.326Z,14.43
2018-03-09T11:51:31.072Z,14.35
2018-03-09T11:52:31.323Z,14.28
2018-03-09T11:53:31.329Z,14.22
2018-03-09T11:54:31.079Z,14.28
2018-03-09T11:55:31.329Z,14.22
2018-03-09T11:56:31.325Z,14.23
2018-03-09T11:57:30.818Z,14.2
2018-03-09T11:58:32.324Z,14.35
2018-03-09T11:59:30.806Z,14.3
2018-03-09T12:00:31.317Z,14.23
2018-03-09T12:01:31.328Z,14.17
2018-03-09T12:02:31.062Z,14.15
2018-03-09T12:03:31.062Z,14.17
2018-03-09T12:04:31.331Z,14.07
2018-03-09T12:05:31.326Z,14.14
2018-03-09T12:06:31.062Z,14.11
2018-03-09T12:07:31.316Z,14.11
2018-03-09T12:08:31.066Z,14.05
2018-03-09T12:09:31.314Z,14.04
2018-03-09T12:10:31.314Z,13.97
2018-03-09T12:11:31.052Z,13.9
2018-03-09T12:12:31.062Z,13.96
2018-03-09T12:13:30.922Z,13.96
2018-03-09T12:14:31.049Z,14
2018-03-09T12:15:31.309Z,13.97
2018-03-09T12:16:31.315Z,13.97
2018-03-09T12:17:31.060Z,13.97
2018-03-09T12:18:31.053Z,13.83
2018-03-09T12:19:31.052Z,13.85
2018-03-09T12:20:31.053Z,13.83
2018-03-09T12:21:31.322Z,13.78
2018-03-09T12:22:31.046Z,13.71
2018-03-09T12:23:31.316Z,13.68
2018-03-09T12:24:31.301Z,13.54
2018-03-09T12:25:31.043Z,13.52
2018-03-09T12:26:31.301Z,13.44
2018-03-09T12:27:31.302Z,13.41
2018-03-09T12:28:31.865Z,13.39
2018-03-09T12:29:31.046Z,13.37
2018-03-09T12:30:31.294Z,13.38
2018-03-09T12:31:31.294Z,13.31
2018-03-09T12:32:31.323Z,13.3
2018-03-09T12:33:30.783Z,13.27
2018-03-09T12:34:31.291Z,13.15
2018-03-09T12:35:31.040Z,13.18
2018-03-09T12:36:31.039Z,13.19
2018-03-09T12:37:31.044Z,13.22
2018-03-09T12:38:31.029Z,13.28
2018-03-09T12:39:31.289Z,13.33
2018-03-09T12:40:31.297Z,13.38
2018-03-09T12:41:31.292Z,13.5
2018-03-09T12:42:31.280Z,13.46
2018-03-09T12:43:31.295Z,13.52
2018-03-09T12:44:31.271Z,13.46
2018-03-09T12:45:31.023Z,13.44
2018-03-09T12:46:31.271Z,13.42
2018-03-09T12:47:31.270Z,13.42
2018-03-09T12:48:31.273Z,13.47
2018-03-09T12:49:31.012Z,13.53
2018-03-09T12:50:31.274Z,13.59
2018-03-09T12:51:31.005Z,13.67
2018-03-09T12:52:31.277Z,13.68
2018-03-09T12:53:31.008Z,13.7
2018-03-09T12:54:31.260Z,13.68
2018-03-09T12:55:31.267Z,13.72
2018-03-09T12:56:31.002Z,13.83
2018-03-09T12:57:31.259Z,13.89
2018-03-09T12:58:31.260Z,14
2018-03-09T12:59:31.002Z,14.17
2018-03-09T13:00:31.264Z,14.29
2018-03-09T13:01:30.744Z,14.44
2018-03-09T13:02:31.262Z,14.63
2018-03-09T13:03:31.000Z,14.81
2018-03-09T13:04:31.258Z,14.81
2018-03-09T13:05:31.002Z,14.85
2018-03-09T13:06:31.261Z,14.84
2018-03-09T13:07:31.042Z,14.72
2018-03-09T13:08:31.258Z,14.68
2018-03-09T13:09:31.253Z,14.58
2018-03-09T13:10:31.254Z,14.51
2018-03-09T13:11:31.398Z,14.35
2018-03-09T13:12:31.261Z,14.32
2018-03-09T13:13:30.998Z,14.33
2018-03-09T13:14:31.048Z,14.4
2018-03-09T13:15:31.259Z,14.41
2018-03-09T13:16:31.255Z,14.44
2018-03-09T13:17:31.256Z,14.36
2018-03-09T13:18:30.981Z,14.44
2018-03-09T13:19:30.985Z,14.54
2018-03-09T13:20:31.238Z,14.62
2018-03-09T13:21:31.234Z,14.68
2018-03-09T13:22:31.268Z,14.65
2018-03-09T13:23:31.283Z,14.66
2018-03-09T13:24:31.228Z,14.54
2018-03-09T13:25:31.233Z,14.65
2018-03-09T13:26:31.237Z,14.58
2018-03-09T13:27:30.979Z,14.66
2018-03-09T13:28:31.238Z,14.68
2018-03-09T13:29:31.276Z,14.81
2018-03-09T13:30:31.234Z,14.94
2018-03-09T13:31:31.230Z,15.04
2018-03-09T13:32:31.236Z,15.28
2018-03-09T13:33:30.981Z,15.39
2018-03-09T13:34:30.983Z,15.42
2018-03-09T13:35:31.239Z,15.44
2018-03-09T13:36:31.294Z,15.52
2018-03-09T13:37:30.982Z,15.65
2018-03-09T13:38:31.240Z,15.73
2018-03-09T13:39:32.041Z,15.61
2018-03-09T13:40:31.000Z,15.7
2018-03-09T13:41:30.981Z,15.65
2018-03-09T13:42:31.237Z,15.73
2018-03-09T13:43:31.247Z,15.86
2018-03-09T13:44:30.988Z,15.91
2018-03-09T13:45:30.992Z,16
2018-03-09T13:46:30.987Z,15.91
2018-03-09T13:47:31.009Z,15.83
2018-03-09T13:48:30.990Z,15.86
2018-03-09T13:49:31.243Z,15.83